Latest Weather Observations for Norah Head

IDN60901

Issued at 3:51 pm EDT Saturday 21 October 2017 (issued every 10 minutes, with the page automatically refreshed every 10 minutes)

About weather observations | Map of Sydney area stations | Latest observations for Sydney area | Other Formats
Station Details ID: 061366 Name: NORAH HEAD AWS Lat: -33.28 Lon: 151.58 Height: 18.8 m
Data from the previous 72 hours. | See also: Recent months at Norah Head
Date/Time
EDT
Temp
°C
App
Temp
°C
Dew
Point
°C
Rel
Hum
%
Delta-T
°C
Wind Press
QNH
hPa
Press
MSL
hPa
Rain since
9am
mm
Dir  Spd
km/h
Gust
km/h
Spd
kts
Gust
kts
21/03:30pm 15.1 14.8 14.3 95 0.5 S 9 13 5 7 1019.0 1018.9 1.0
21/03:00pm 14.0 10.0 12.9 93 0.6 S 26 35 14 19 1019.4 1019.3 0.4
21/02:30pm 14.8 10.5 13.2 90 0.9 S 28 37 15 20 1019.6 1019.5 0.2
21/02:00pm 16.8 11.5 13.1 79 2.1 S 33 50 18 27 1019.4 1019.3 0.2
21/01:30pm 15.8 10.7 11.8 77 2.2 SSW 30 43 16 23 1019.9 1019.8 0.2
21/01:00pm 16.1 9.9 12.8 81 1.8 SSW 37 46 20 25 1020.1 1020.0 0.2
21/12:30pm 16.8 12.3 12.5 76 2.4 SSW 28 41 15 22 1020.5 1020.4 0.2
21/12:00pm 16.1 10.2 12.3 78 2.1 SSW 35 44 19 24 1020.6 1020.5 0.2
21/11:30am 15.2 9.7 12.3 83 1.6 SSW 33 50 18 27 1020.8 1020.7 0.2
21/11:00am 16.0 10.4 12.0 77 2.2 SSW 33 46 18 25 1021.2 1021.1 0.0
21/10:30am 16.9 11.3 11.6 71 2.9 SSW 32 43 17 23 1021.2 1021.1 0.0
21/10:00am 16.1 11.1 11.1 72 2.7 SSW 28 37 15 20 1021.5 1021.4 0.0
21/09:30am 16.1 12.1 10.4 69 3.0 SSW 22 32 12 17 1021.5 1021.4 0.0
21/09:00am 15.8 12.0 9.9 68 3.1 SW 20 28 11 15 1021.4 1021.3 21.0
21/08:30am 14.7 11.3 9.1 69 2.9 SW 17 32 9 17 1021.1 1021.0 21.0
21/08:00am 14.6 11.9 9.0 69 2.8 SW 13 20 7 11 1021.4 1021.3 21.0
21/07:30am 15.5 10.2 8.5 63 3.6 SSW 26 44 14 24 1021.2 1021.1 21.0
21/07:00am 15.8 9.7 9.9 68 3.1 SSW 32 43 17 23 1020.9 1020.8 21.0
21/06:30am 15.8 9.6 9.5 66 3.3 S 32 43 17 23 1021.1 1021.0 21.0
21/06:00am 16.0 8.8 9.2 64 3.5 S 37 46 20 25 1020.5 1020.4 21.0
21/05:30am 16.1 9.6 10.4 69 3.0 S 35 46 19 25 1020.5 1020.4 21.0
21/05:00am 16.1 8.0 10.0 67 3.2 S 43 52 23 28 1020.4 1020.3 21.0
21/04:30am 16.2 8.5 10.1 67 3.2 S 41 50 22 27 1020.4 1020.3 21.0
21/04:00am 16.2 8.9 10.1 67 3.2 S 39 50 21 27 1020.9 1020.8 21.0
21/03:30am 16.2 8.7 10.7 70 2.9 S 41 52 22 28 1020.6 1020.5 20.8
21/03:00am 15.9 9.1 10.7 71 2.8 S 37 52 20 28 1021.7 1021.6 20.8
21/02:30am 16.6 10.3 11.1 70 3.0 S 35 44 19 24 1021.7 1021.6 20.8
21/02:00am 16.3 9.2 10.8 70 2.9 S 39 50 21 27 1022.0 1021.9 20.8
21/01:30am 16.3 8.5 11.0 71 2.8 S 43 50 23 27 1021.8 1021.7 20.8
21/01:00am 15.9 8.6 12.8 82 1.7 S 43 54 23 29 1022.0 1021.9 20.8
21/12:49am 16.5 9.4 12.3 76 2.3 S 41 67 22 36 1022.0 1021.9 20.8
21/12:30am 16.8 9.5 11.5 71 2.9 S 41 50 22 27 1022.3 1022.2 20.8
21/12:00am 16.7 10.0 12.3 75 2.4 S 39 50 21 27 1022.5 1022.4 20.8
 
Date/Time
EDT
Temp
°C
App
Temp
°C
Dew
Point
°C
Rel
Hum
%
Delta-T
°C
Wind Press
QNH
hPa
Press
MSL
hPa
Rain since
9am
mm
Dir  Spd
km/h
Gust
km/h
Spd
kts
Gust
kts
20/11:30pm 16.3 9.0 12.8 80 1.9 S 43 52 23 28 1022.5 1022.4 20.8
20/11:00pm 16.6 8.4 12.8 78 2.1 S 48 63 26 34 1022.5 1022.4 20.8
20/10:30pm 16.6 9.5 13.5 82 1.7 S 43 50 23 27 1022.4 1022.3 20.8
20/10:00pm 15.8 8.0 14.0 89 1.0 S 48 57 26 31 1022.3 1022.2 20.8
20/09:30pm 15.8 9.7 15.3 97 0.3 S 41 48 22 26 1022.3 1022.2 20.4
20/09:00pm 15.3 8.7 15.3 100 0.0 S 44 54 24 29 1022.4 1022.3 20.2
20/08:30pm 15.7 8.8 15.7 100 0.0 S 46 57 25 31 1022.0 1021.9 19.4
20/08:00pm 15.6 9.1 15.6 100 0.0 S 44 50 24 27 1021.6 1021.5 18.8
20/07:30pm 15.8 9.9 15.8 100 0.0 S 41 48 22 26 1021.4 1021.3 18.2
20/07:00pm 15.4 9.4 15.4 100 0.0 S 41 52 22 28 1021.0 1020.9 17.8
20/06:30pm 15.7 10.6 15.7 100 0.0 S 37 46 20 25 1020.9 1020.8 17.4
20/06:00pm 15.6 9.1 15.6 100 0.0 S 44 52 24 28 1020.7 1020.6 16.4
20/05:30pm 15.7 8.8 15.7 100 0.0 S 46 54 25 29 1020.3 1020.2 15.4
20/05:00pm 15.8 9.6 15.8 100 0.0 S 43 50 23 27 1020.1 1020.0 13.6
20/04:30pm 15.9 10.5 15.9 100 0.0 S 39 50 21 27 1019.7 1019.6 12.8
20/04:00pm 15.8 10.3 15.8 100 0.0 S 39 48 21 26 1019.5 1019.4 11.4
20/03:30pm 15.9 10.5 15.9 100 0.0 S 39 52 21 28 1019.8 1019.7 10.8
20/03:07pm 16.1 10.7 16.1 100 0.0 S 39 59 21 32 1019.5 1019.4 10.4
20/03:00pm 16.3 11.4 16.3 100 0.0 S 37 48 20 26 1019.5 1019.4 10.2
20/02:30pm 16.3 10.6 16.3 100 0.0 S 41 52 22 28 1019.5 1019.4 9.2
20/02:00pm 16.3 11.0 16.3 100 0.0 SSW 39 52 21 28 1019.4 1019.3 8.2
20/01:37pm 16.4 12.5 16.4 100 0.0 SSW 32 52 17 28 1019.3 1019.2 6.4
20/01:30pm 16.5 12.4 16.5 100 0.0 SSW 33 43 18 23 1019.6 1019.5 6.2
20/01:00pm 17.1 12.5 17.1 100 0.0 S 37 46 20 25 1019.0 1018.9 3.8
20/12:30pm 17.1 12.8 16.9 99 0.1 SSW 35 46 19 25 1019.4 1019.3 3.2
20/12:18pm 17.7 15.7 17.5 99 0.1 SSW 24 39 13 21 1019.4 1019.3 2.8
20/12:00pm 19.0 21.0 18.7 98 0.2 SSW 6 9 3 5 1019.4 1019.3 2.2
20/11:30am 19.3 22.5 18.8 97 0.3 CALM 0 0 0 0 1019.4 1019.3 2.2
20/11:00am 19.5 22.8 19.0 97 0.3 CALM 0 0 0 0 1019.6 1019.5 1.8
20/10:30am 19.6 22.9 19.1 97 0.3 CALM 0 0 0 0 1019.8 1019.7 1.4
20/10:00am 19.2 22.3 18.7 97 0.3 CALM 0 0 0 0 1019.9 1019.8 1.2
20/09:30am 19.4 22.8 19.4 100 0.0 CALM 0 4 0 2 1019.8 1019.7 0.8
20/09:00am 19.1 21.6 19.1 100 0.0 W 4 6 2 3 1019.7 1019.6 4.0
20/08:30am 18.9 21.3 18.7 99 0.1 W 4 7 2 4 1019.6 1019.5 2.8
20/08:00am 18.9 20.9 18.7 99 0.1 W 6 7 3 4 1019.6 1019.5 2.2
20/07:30am 18.9 20.6 18.4 97 0.3 W 7 11 4 6 1019.2 1019.1 1.2
20/07:00am 19.0 20.2 18.2 95 0.5 W 9 13 5 7 1018.8 1018.7 1.0
20/06:30am 19.2 20.3 17.9 92 0.8 W 9 15 5 8 1018.5 1018.4 0.4
20/06:00am 19.0 19.7 17.1 89 1.1 WSW 9 15 5 8 1017.9 1017.8 0.0
20/05:30am 18.1 18.7 16.8 92 0.8 SSW 9 11 5 6 1017.4 1017.3 0.0
20/05:00am 18.5 19.6 16.7 89 1.1 SW 6 7 3 4 1017.2 1017.1 0.0
20/04:30am 18.5 19.6 16.5 88 1.2 SW 6 9 3 5 1017.1 1017.0 0.0
20/04:00am 18.4 19.5 16.7 90 1.0 SW 6 7 3 4 1016.9 1016.8 0.0
20/03:30am 18.1 19.4 17.0 93 0.7 SW 6 9 3 5 1016.9 1016.8 0.0
20/03:00am 17.5 19.6 16.2 92 0.8 CALM 0 0 0 0 1016.7 1016.6 0.0
20/02:30am 17.6 19.0 16.5 93 0.7 NW 4 7 2 4 1016.9 1016.8 0.0
20/02:00am 17.7 16.7 16.7 94 0.6 NNE 17 20 9 11 1017.0 1016.9 0.0
20/01:30am 17.7 16.4 16.9 95 0.5 N 19 20 10 11 1017.2 1017.1 0.0
20/01:00am 17.8 16.5 16.8 94 0.6 NNE 19 22 10 12 1017.6 1017.5 0.0
20/12:30am 17.9 16.5 16.9 94 0.6 NNE 20 24 11 13 1018.1 1018.0 0.0
20/12:00am 17.9 16.4 16.8 93 0.7 NNE 20 22 11 12 1018.6 1018.5 0.0
 
Date/Time
EDT
Temp
°C
App
Temp
°C
Dew
Point
°C
Rel
Hum
%
Delta-T
°C
Wind Press
QNH
hPa
Press
MSL
hPa
Rain since
9am
mm
Dir  Spd
km/h
Gust
km/h
Spd
kts
Gust
kts
19/11:30pm 18.0 16.7 16.9 93 0.7 NNE 19 20 10 11 1018.8 1018.7 0.0
19/11:00pm 18.2 16.8 16.9 92 0.8 NNE 20 22 11 12 1018.9 1018.8 0.0
19/10:30pm 18.3 16.0 16.6 90 1.0 NNE 24 28 13 15 1019.0 1018.9 0.0
19/10:00pm 18.6 15.1 16.6 88 1.2 NNE 30 33 16 18 1019.0 1018.9 0.0
19/09:30pm 18.5 15.9 16.8 90 1.0 NNE 26 28 14 15 1019.3 1019.2 0.0
19/09:00pm 18.5 16.2 16.7 89 1.1 N 24 28 13 15 1019.4 1019.3 0.0
19/08:30pm 18.7 16.1 16.9 89 1.1 NNE 26 30 14 16 1019.2 1019.1 0.0
19/08:00pm 18.9 15.6 16.9 88 1.2 NNE 30 33 16 18 1019.1 1019.0 0.0
19/07:30pm 19.1 14.4 16.9 87 1.3 NNE 37 44 20 24 1018.8 1018.7 0.0
19/07:00pm 19.3 14.2 16.9 86 1.4 NE 39 46 21 25 1018.6 1018.5 0.0
19/06:30pm 19.4 14.3 16.8 85 1.6 NE 39 46 21 25 1018.5 1018.4 0.0
19/06:00pm 19.6 14.6 17.0 85 1.6 NE 39 46 21 25 1018.6 1018.5 0.0
19/05:30pm 19.8 15.2 17.0 84 1.7 NE 37 44 20 24 1018.7 1018.6 0.0
19/05:00pm 20.0 15.4 17.0 83 1.8 NE 37 44 20 24 1018.9 1018.8 0.0
19/04:30pm 20.2 15.2 17.0 82 1.9 NE 39 44 21 24 1019.1 1019.0 0.0
19/04:00pm 20.6 15.6 17.0 80 2.2 NE 39 44 21 24 1019.4 1019.3 0.0
19/03:30pm 21.3 16.3 17.1 77 2.6 NE 39 44 21 24 1019.7 1019.6 0.0
19/03:00pm 22.2 17.3 17.3 74 3.0 NE 39 46 21 25 1020.3 1020.2 0.0
19/02:30pm 22.6 18.8 17.3 72 3.3 NE 33 39 18 21 1020.9 1020.8 0.0
19/02:00pm 22.8 18.3 17.3 71 3.4 NE 37 43 20 23 1021.4 1021.3 0.0
19/01:30pm 24.0 20.4 17.3 66 4.2 NE 32 37 17 20 1021.9 1021.8 0.0
19/01:00pm 24.8 21.8 17.8 65 4.4 NE 30 35 16 19 1022.5 1022.4 0.0
19/12:30pm 25.0 22.4 17.7 64 4.6 NE 28 32 15 17 1022.9 1022.8 0.0
19/12:00pm 24.3 22.3 17.3 65 4.3 NE 24 28 13 15 1023.5 1023.4 0.0
19/11:30am 24.5 22.9 17.5 65 4.4 NE 22 26 12 14 1023.9 1023.8 0.0
19/11:00am 22.6 19.8 16.4 68 3.8 NE 26 32 14 17 1024.3 1024.2 0.0
19/10:30am 22.2 19.7 16.2 69 3.6 NE 24 26 13 14 1024.7 1024.6 0.0
19/10:00am 21.6 19.2 16.3 72 3.2 NE 24 28 13 15 1025.1 1025.0 0.0
19/09:30am 20.9 18.8 16.3 75 2.8 NNE 22 26 12 14 1025.4 1025.3 0.0
19/09:00am 21.2 19.7 16.2 73 3.0 NNE 19 20 10 11 1025.5 1025.4 0.0
19/08:30am 20.2 17.7 15.2 73 2.9 NNE 22 26 12 14 1025.4 1025.3 0.0
19/08:00am 20.0 18.7 15.8 77 2.5 NNE 17 19 9 10 1025.4 1025.3 0.0
19/07:30am 19.1 17.2 15.8 81 2.0 NNE 20 24 11 13 1025.2 1025.1 0.0
19/07:00am 18.3 16.2 16.1 87 1.3 NNE 22 24 12 13 1025.0 1024.9 0.0
19/06:30am 17.5 15.2 15.8 90 1.0 N 22 24 12 13 1024.9 1024.8 0.0
19/06:00am 17.5 15.2 15.8 90 1.0 N 22 26 12 14 1024.6 1024.5 0.0
19/05:30am 17.7 14.9 16.4 92 0.8 NNE 26 28 14 15 1024.3 1024.2 0.0
19/05:00am 17.7 14.8 16.2 91 0.9 NNE 26 28 14 15 1024.0 1023.9 0.0
19/04:30am 17.7 14.4 16.0 90 1.0 NNE 28 32 15 17 1024.1 1024.0 0.0
19/04:00am 17.9 14.4 16.4 91 0.9 NNE 30 33 16 18 1024.1 1024.0 0.0
19/03:30am 18.1 14.0 16.4 90 1.0 NNE 33 37 18 20 1024.3 1024.2 0.0
19/03:00am 18.2 14.3 16.5 90 1.0 NNE 32 37 17 20 1024.6 1024.5 0.0
19/02:30am 18.2 14.7 16.5 90 1.0 NNE 30 33 16 18 1024.9 1024.8 0.0
19/02:00am 18.4 14.0 16.6 89 1.1 NNE 35 41 19 22 1024.9 1024.8 0.0
19/01:30am 18.4 14.4 16.6 89 1.1 NNE 33 37 18 20 1025.3 1025.2 0.0
19/01:00am 18.5 14.1 16.7 89 1.1 NNE 35 41 19 22 1025.7 1025.6 0.0
19/12:30am 18.6 14.6 16.6 88 1.2 NNE 33 39 18 21 1026.1 1026.0 0.0
19/12:00am 18.7 14.3 16.7 88 1.2 NNE 35 41 19 22 1026.2 1026.1 0.0
 
Date/Time
EDT
Temp
°C
App
Temp
°C
Dew
Point
°C
Rel
Hum
%
Delta-T
°C
Wind Press
QNH
hPa
Press
MSL
hPa
Rain since
9am
mm
Dir  Spd
km/h
Gust
km/h
Spd
kts
Gust
kts
18/11:30pm 18.7 14.8 16.5 87 1.3 NNE 32 37 17 20 1026.3 1026.2 0.0
18/11:00pm 18.8 14.3 16.4 86 1.4 NNE 35 39 19 21 1026.4 1026.3 0.0
18/10:30pm 18.8 14.8 16.6 87 1.3 NNE 33 37 18 20 1026.4 1026.3 0.0
18/10:00pm 18.9 14.1 16.7 87 1.3 NNE 37 43 20 23 1026.5 1026.4 0.0
18/09:30pm 19.1 14.0 16.7 86 1.4 NNE 39 44 21 24 1026.4 1026.3 0.0
18/09:00pm 19.1 13.6 16.7 86 1.4 NE 41 48 22 26 1026.3 1026.2 0.0
18/08:30pm 19.2 13.8 17.0 87 1.3 NE 41 50 22 27 1026.1 1026.0 0.0
18/08:00pm 19.4 13.4 16.8 85 1.6 NE 44 52 24 28 1025.8 1025.7 0.0
18/07:30pm 19.3 13.2 16.7 85 1.6 NE 44 54 24 29 1025.6 1025.5 0.0
18/07:00pm 19.4 13.2 16.4 83 1.8 NE 44 50 24 27 1025.6 1025.5 0.0
18/06:30pm 19.6 13.6 16.4 82 1.9 NE 43 50 23 27 1025.3 1025.2 0.0
18/06:00pm 19.9 13.8 16.3 80 2.2 NE 43 56 23 30 1025.1 1025.0 0.0
18/05:30pm 20.5 14.2 16.1 76 2.6 NE 44 54 24 29 1025.1 1025.0 0.0
18/05:00pm 21.0 14.8 16.0 73 3.0 NE 43 52 23 28 1025.0 1024.9 0.0
18/04:30pm 21.6 15.9 16.3 72 3.2 NE 41 50 22 27 1025.1 1025.0 0.0
18/04:00pm 22.1 16.7 16.1 69 3.6 NE 39 48 21 26 1025.3 1025.2 0.0

Latest Capital City Observations: Canberra | Sydney | Melbourne | Brisbane | Adelaide | Perth | Hobart | Darwin

Other Formats:

Comma delimited format used in spreadsheet applications
http://www.bom.gov.au/fwo/IDN60901/IDN60901.95770.axf

JavaScript Object Notation format (JSON) in row-major order
http://www.bom.gov.au/fwo/IDN60901/IDN60901.95770.json